createdAt,value
2023-12-30T00:00:35.583Z,10.30
2023-12-30T00:05:37.100Z,10.27
2023-12-30T00:10:38.518Z,10.24
2023-12-30T00:15:39.910Z,10.18
2023-12-30T00:20:41.372Z,10.12
2023-12-30T00:25:42.779Z,10.15
2023-12-30T00:30:44.306Z,10.15
2023-12-30T00:35:46.316Z,10.06
2023-12-30T00:40:47.719Z,10.01
2023-12-30T00:45:49.603Z,9.99
2023-12-30T00:50:51.049Z,9.98
2023-12-30T00:55:52.466Z,9.95
2023-12-30T01:00:54.015Z,9.92
2023-12-30T01:05:55.481Z,9.88
2023-12-30T01:10:56.857Z,9.86
2023-12-30T01:15:58.354Z,9.85
2023-12-30T01:20:59.744Z,9.83
2023-12-30T01:26:01.243Z,9.82
2023-12-30T01:31:02.858Z,9.80
2023-12-30T01:36:05.026Z,9.77
2023-12-30T01:41:06.486Z,9.74
2023-12-30T01:46:11.045Z,9.73
2023-12-30T01:51:24.319Z,9.73
2023-12-30T01:56:28.566Z,9.71
2023-12-30T02:01:30.470Z,9.72
2023-12-30T02:06:31.906Z,9.83
2023-12-30T02:11:33.505Z,9.82
2023-12-30T02:16:34.911Z,9.78
2023-12-30T02:21:36.340Z,9.77
2023-12-30T02:26:37.716Z,9.76
2023-12-30T02:31:47.432Z,9.75
2023-12-30T02:36:49.405Z,9.77
2023-12-30T02:41:50.918Z,9.75
2023-12-30T02:46:52.501Z,9.78
2023-12-30T02:51:55.067Z,9.80
2023-12-30T02:56:57.105Z,9.86
2023-12-30T03:01:58.781Z,9.86
2023-12-30T03:07:00.254Z,9.85
2023-12-30T03:12:03.270Z,9.84
2023-12-30T03:17:04.962Z,9.82
2023-12-30T03:22:06.355Z,9.91
2023-12-30T03:27:07.759Z,9.98
2023-12-30T03:32:09.128Z,9.99
2023-12-30T03:37:11.000Z,9.96
2023-12-30T03:42:12.463Z,9.87
2023-12-30T03:47:14.270Z,9.96
2023-12-30T03:52:15.709Z,10.01
2023-12-30T03:57:17.109Z,10.02
2023-12-30T04:02:22.061Z,10.10
2023-12-30T04:07:23.714Z,10.18
2023-12-30T04:12:26.021Z,10.27
2023-12-30T04:17:27.627Z,10.40
2023-12-30T04:22:29.873Z,10.44
2023-12-30T04:27:31.463Z,10.51
2023-12-30T04:32:32.906Z,10.55
2023-12-30T04:37:34.309Z,10.61
2023-12-30T04:42:35.873Z,10.58
2023-12-30T04:47:37.252Z,10.67
2023-12-30T04:52:38.711Z,10.78
2023-12-30T04:57:42.322Z,10.85
2023-12-30T05:02:43.792Z,10.87
2023-12-30T05:07:45.459Z,10.85
2023-12-30T05:12:47.117Z,10.94
2023-12-30T05:17:48.592Z,11.03
2023-12-30T05:22:49.990Z,10.99
2023-12-30T05:27:51.340Z,10.93
2023-12-30T05:32:52.762Z,10.95
2023-12-30T05:37:54.332Z,10.97
2023-12-30T05:42:55.737Z,10.95
2023-12-30T05:47:57.186Z,10.74
2023-12-30T05:52:58.909Z,10.67
2023-12-30T05:58:00.358Z,10.66
2023-12-30T06:03:01.935Z,10.70
2023-12-30T06:08:03.696Z,10.75
2023-12-30T06:13:05.353Z,10.78
2023-12-30T06:18:07.070Z,10.66
2023-12-30T06:23:08.493Z,10.50
2023-12-30T06:28:10.317Z,10.47
2023-12-30T06:33:11.810Z,10.49
2023-12-30T06:38:15.331Z,10.47
2023-12-30T06:43:17.972Z,10.38
2023-12-30T06:48:21.320Z,10.34
2023-12-30T06:53:22.786Z,10.28
2023-12-30T06:58:24.174Z,10.30
2023-12-30T07:03:25.662Z,10.37
2023-12-30T07:08:27.064Z,10.38
2023-12-30T07:13:28.517Z,10.46
2023-12-30T07:18:29.949Z,10.57
2023-12-30T07:23:31.319Z,10.58
2023-12-30T07:28:32.925Z,10.65
2023-12-30T07:33:36.791Z,10.69
2023-12-30T07:38:38.261Z,10.77
2023-12-30T07:43:39.650Z,10.82
2023-12-30T07:48:41.435Z,10.87
2023-12-30T07:53:42.862Z,10.82
2023-12-30T07:58:44.256Z,10.87
2023-12-30T08:03:45.840Z,10.83
2023-12-30T08:08:47.322Z,10.88
2023-12-30T08:13:48.756Z,10.93
2023-12-30T08:18:50.191Z,10.96
2023-12-30T08:23:51.647Z,11.01
2023-12-30T08:28:53.976Z,11.01
2023-12-30T08:33:55.584Z,11.10
2023-12-30T08:38:57.078Z,11.09
2023-12-30T08:43:58.459Z,11.11
2023-12-30T08:49:01.229Z,11.11
2023-12-30T08:54:03.069Z,11.18
2023-12-30T08:59:05.068Z,11.30
2023-12-30T09:04:06.738Z,11.29
2023-12-30T09:09:08.546Z,11.34
2023-12-30T09:14:09.923Z,11.34
2023-12-30T09:19:11.431Z,11.42
2023-12-30T09:24:12.905Z,11.42
2023-12-30T09:29:14.373Z,11.59
2023-12-30T09:34:20.894Z,11.67
2023-12-30T09:39:28.004Z,11.59
2023-12-30T09:44:29.813Z,11.65
2023-12-30T09:49:35.325Z,11.78
2023-12-30T09:54:48.065Z,11.85
2023-12-30T09:59:52.210Z,11.84
2023-12-30T10:04:55.548Z,11.81
2023-12-30T10:09:56.983Z,11.85
2023-12-30T10:14:58.373Z,11.84
2023-12-30T10:19:59.860Z,11.84
2023-12-30T10:25:03.069Z,11.89
2023-12-30T10:30:05.096Z,11.93
2023-12-30T10:35:06.750Z,11.90
2023-12-30T10:40:11.807Z,11.98
2023-12-30T10:45:13.277Z,12.03
2023-12-30T10:50:15.692Z,12.18
2023-12-30T10:55:19.130Z,12.18
2023-12-30T11:00:23.732Z,12.19
2023-12-30T11:05:32.821Z,12.23
2023-12-30T11:10:34.958Z,12.41
2023-12-30T11:15:39.227Z,12.46
2023-12-30T11:20:47.285Z,12.41
2023-12-30T11:25:49.565Z,12.33
2023-12-30T11:31:02.037Z,12.41
2023-12-30T11:36:04.802Z,12.43
2023-12-30T11:41:06.945Z,12.55
2023-12-30T11:46:08.478Z,12.68
2023-12-30T11:51:10.358Z,12.88
2023-12-30T11:56:12.601Z,12.87
2023-12-30T12:01:14.275Z,12.88
2023-12-30T12:06:16.397Z,12.88
2023-12-30T12:11:18.086Z,12.95
2023-12-30T12:16:19.645Z,12.90
2023-12-30T12:21:22.003Z,12.96
2023-12-30T12:26:24.194Z,13.00
2023-12-30T12:31:31.802Z,12.90
2023-12-30T12:36:33.636Z,13.08
2023-12-30T12:41:36.214Z,12.94
2023-12-30T12:46:38.411Z,12.92
2023-12-30T12:51:40.631Z,13.01
2023-12-30T12:56:43.974Z,13.13
2023-12-30T13:01:46.311Z,13.18
2023-12-30T13:06:48.297Z,13.10
2023-12-30T13:11:49.648Z,13.01
2023-12-30T13:16:51.035Z,12.97
2023-12-30T13:21:53.614Z,12.95
2023-12-30T13:26:59.254Z,13.03
2023-12-30T13:32:00.926Z,13.10
2023-12-30T13:37:06.925Z,13.14
2023-12-30T13:42:10.932Z,13.07
2023-12-30T13:47:24.898Z,13.07
2023-12-30T13:52:28.959Z,13.14
2023-12-30T13:57:33.079Z,13.09
2023-12-30T14:02:41.774Z,13.05
2023-12-30T14:07:44.786Z,12.96
2023-12-30T14:12:46.787Z,12.89
2023-12-30T14:17:48.389Z,12.87
2023-12-30T14:22:49.947Z,12.82
2023-12-30T14:27:51.382Z,12.75
2023-12-30T14:32:52.840Z,12.63
2023-12-30T14:37:54.565Z,12.57
2023-12-30T14:42:56.235Z,12.50
2023-12-30T14:47:57.885Z,12.44
2023-12-30T14:52:59.287Z,12.38
2023-12-30T14:58:00.786Z,12.34
2023-12-30T15:03:02.524Z,12.29
2023-12-30T15:08:04.588Z,12.14
2023-12-30T15:13:06.372Z,12.04
2023-12-30T15:18:08.043Z,11.89
2023-12-30T15:23:10.506Z,11.77
2023-12-30T15:28:11.906Z,11.70
2023-12-30T15:33:13.446Z,11.68
2023-12-30T15:38:14.976Z,11.69
2023-12-30T15:43:16.665Z,11.69
2023-12-30T15:48:18.324Z,11.68
2023-12-30T15:53:19.989Z,11.67
2023-12-30T15:58:21.497Z,11.56
2023-12-30T16:03:23.188Z,11.46
2023-12-30T16:08:24.690Z,11.32
2023-12-30T16:13:26.160Z,11.20
2023-12-30T16:18:30.721Z,11.07
2023-12-30T16:23:32.130Z,10.93
2023-12-30T16:28:34.407Z,10.78
2023-12-30T16:33:41.506Z,10.58
2023-12-30T16:38:43.352Z,10.47
2023-12-30T16:43:44.961Z,10.44
2023-12-30T16:48:46.592Z,10.48
2023-12-30T16:53:48.070Z,10.58
2023-12-30T16:58:49.924Z,10.59
2023-12-30T17:03:51.405Z,10.60
2023-12-30T17:08:53.101Z,10.65
2023-12-30T17:13:54.593Z,10.54
2023-12-30T17:18:56.014Z,10.45
2023-12-30T17:23:57.812Z,10.40
2023-12-30T17:28:59.218Z,10.31
2023-12-30T17:34:01.004Z,10.25
2023-12-30T17:39:03.009Z,10.24
2023-12-30T17:44:05.543Z,10.21
2023-12-30T17:49:07.190Z,10.12
2023-12-30T17:54:08.640Z,10.01
2023-12-30T17:59:10.253Z,9.88
2023-12-30T18:04:12.939Z,9.79
2023-12-30T18:09:14.447Z,9.68
2023-12-30T18:14:18.683Z,9.58
2023-12-30T18:19:20.280Z,9.46
2023-12-30T18:24:21.673Z,9.35
2023-12-30T18:29:23.756Z,9.26
2023-12-30T18:34:25.258Z,9.22
2023-12-30T18:39:26.742Z,9.12
2023-12-30T18:44:28.200Z,9.12
2023-12-30T18:49:30.007Z,9.20
2023-12-30T18:54:31.431Z,9.25
2023-12-30T18:59:32.860Z,9.32
2023-12-30T19:04:37.573Z,9.35
2023-12-30T19:09:39.463Z,9.37
2023-12-30T19:14:40.860Z,9.32
2023-12-30T19:19:42.447Z,9.28
2023-12-30T19:24:44.168Z,9.26
2023-12-30T19:29:45.590Z,9.23
2023-12-30T19:34:46.987Z,9.24
2023-12-30T19:39:48.716Z,9.26
2023-12-30T19:44:50.074Z,9.45
2023-12-30T19:49:51.487Z,9.44
2023-12-30T19:54:53.054Z,9.32
2023-12-30T19:59:54.481Z,9.30
2023-12-30T20:04:55.961Z,9.49
2023-12-30T20:09:57.391Z,9.67
2023-12-30T20:14:58.768Z,9.80
2023-12-30T20:20:02.722Z,9.93
2023-12-30T20:25:05.662Z,10.04
2023-12-30T20:30:07.965Z,10.18
2023-12-30T20:35:09.585Z,10.26
2023-12-30T20:40:12.095Z,10.36
2023-12-30T20:45:15.281Z,10.45
2023-12-30T20:50:16.774Z,10.50
2023-12-30T20:55:19.352Z,10.52
2023-12-30T21:00:23.172Z,10.54
2023-12-30T21:05:24.712Z,10.53
2023-12-30T21:10:26.178Z,10.51
2023-12-30T21:15:27.651Z,10.48
2023-12-30T21:20:29.066Z,10.41
2023-12-30T21:25:30.485Z,10.37
2023-12-30T21:30:31.987Z,10.40
2023-12-30T21:35:33.413Z,10.38
2023-12-30T21:40:34.917Z,10.46
2023-12-30T21:45:36.382Z,10.57
2023-12-30T21:50:37.842Z,10.62
2023-12-30T21:55:39.266Z,10.66
2023-12-30T22:00:41.169Z,10.71
2023-12-30T22:05:44.073Z,10.70
2023-12-30T22:10:45.963Z,10.70
2023-12-30T22:15:47.803Z,10.69
2023-12-30T22:20:49.180Z,10.71
2023-12-30T22:25:50.633Z,10.70
2023-12-30T22:30:52.206Z,10.61
2023-12-30T22:35:53.640Z,10.69
2023-12-30T22:40:55.114Z,10.70
2023-12-30T22:45:59.757Z,10.74
2023-12-30T22:51:01.198Z,10.71
2023-12-30T22:56:03.749Z,10.71
2023-12-30T23:01:06.054Z,10.68
2023-12-30T23:06:09.218Z,10.70
2023-12-30T23:11:11.173Z,10.69
2023-12-30T23:16:14.470Z,10.68
2023-12-30T23:21:15.853Z,10.67
2023-12-30T23:26:17.321Z,10.63
2023-12-30T23:31:18.707Z,10.61
2023-12-30T23:36:20.181Z,10.61
2023-12-30T23:41:21.529Z,10.64
2023-12-30T23:46:22.979Z,10.54
2023-12-30T23:51:24.447Z,10.47
2023-12-30T23:56:26.120Z,10.44
